Time;durP1;ratioP1;P1;durP2;ratioP2;P2;SDS_P1;SDS_P2;PMS_P1;PMS_P2;Temp;Humidity;BMP_temperature;BMP_pressure;BME280_temperature;BME280_humidity;BME280_pressure;Samples;Min_cycle;Max_cycle;Signal;HPM_P1;HPM_P2
2022/06/10 00:00:20;;;;;;;3.65;1.50;;;11.60;99.90;;;;;;5076966;28;20103;-66
2022/06/10 00:02:45;;;;;;;5.13;2.30;;;11.60;99.90;;;;;;5076594;28;20400;-66
2022/06/10 00:05:13;;;;;;;5.40;1.80;;;11.50;99.90;;;;;;5075910;28;20291;-66
2022/06/10 00:07:39;;;;;;;4.22;2.00;;;11.60;99.90;;;;;;5072321;28;20048;-66
2022/06/10 00:10:06;;;;;;;8.18;2.17;;;11.60;99.90;;;;;;5079022;28;20051;-66
2022/06/10 00:12:31;;;;;;;6.85;2.67;;;11.50;99.90;;;;;;5079458;28;20047;-66
2022/06/10 00:14:57;;;;;;;11.20;1.77;;;11.60;99.90;;;;;;5096842;28;20056;-66
2022/06/10 00:17:23;;;;;;;5.05;1.83;;;11.50;99.90;;;;;;5096671;28;20040;-66
2022/06/10 00:19:48;;;;;;;8.88;2.67;;;11.50;99.90;;;;;;5079070;28;20055;-66
2022/06/10 00:22:14;;;;;;;4.22;1.40;;;11.50;99.90;;;;;;5063082;28;20123;-66
2022/06/10 00:24:39;;;;;;;5.22;2.03;;;11.40;99.90;;;;;;5058898;28;20087;-67
2022/06/10 00:27:05;;;;;;;5.65;1.88;;;11.40;99.90;;;;;;5057816;28;20044;-66
2022/06/10 00:29:32;;;;;;;6.45;1.80;;;11.40;99.90;;;;;;5058741;28;20113;-66
2022/06/10 00:31:58;;;;;;;6.22;2.20;;;11.40;99.90;;;;;;5076122;28;20127;-66
2022/06/10 00:34:23;;;;;;;3.75;1.58;;;11.40;99.90;;;;;;5057721;28;20040;-67
2022/06/10 00:36:49;;;;;;;8.73;2.63;;;11.40;99.90;;;;;;5076133;28;20055;-66
2022/06/10 00:39:15;;;;;;;4.47;1.40;;;11.30;99.90;;;;;;5058964;28;20055;-66
2022/06/10 00:41:42;;;;;;;4.05;1.75;;;11.30;99.90;;;;;;5058225;28;20463;-66
2022/06/10 00:44:34;;;;;;;7.00;1.85;;;11.30;99.90;;;;;;5058308;28;20120;-66
2022/06/10 00:47:02;;;;;;;6.20;1.67;;;11.30;99.90;;;;;;5058167;28;20473;-66
2022/06/10 00:49:31;;;;;;;4.35;1.75;;;11.30;99.90;;;;;;5075321;28;20520;-66
2022/06/10 00:51:57;;;;;;;4.75;1.60;;;11.20;99.90;;;;;;5058145;28;20106;-66
2022/06/10 00:54:26;;;;;;;6.15;2.15;;;11.20;99.90;;;;;;5057693;28;20052;-66
2022/06/10 00:57:00;;;;;;;11.88;2.03;;;11.20;99.90;;;;;;5075312;28;20139;-66
2022/06/10 00:59:54;;;;;;;4.28;1.92;;;11.20;99.90;;;;;;5057821;28;20037;-66
2022/06/10 01:02:24;;;;;;;5.50;1.77;;;11.10;99.90;;;;;;5053413;28;20546;-66
2022/06/10 01:04:51;;;;;;;5.82;1.60;;;11.10;99.90;;;;;;5057651;28;20457;-66
2022/06/10 01:07:24;;;;;;;5.50;1.70;;;11.10;99.90;;;;;;5040997;28;20041;-67
2022/06/10 01:09:50;;;;;;;3.58;1.80;;;11.10;99.90;;;;;;5057416;28;20066;-66
2022/06/10 01:12:36;;;;;;;5.22;1.58;;;11.00;99.90;;;;;;5058157;28;20169;-66
2022/06/10 01:15:16;;;;;;;3.83;2.05;;;11.00;99.90;;;;;;5075399;28;20037;-67
2022/06/10 01:18:01;;;;;;;7.22;2.60;;;10.90;99.90;;;;;;5057376;28;20127;-67
2022/06/10 01:20:55;;;;;;;8.18;2.85;;;10.90;99.90;;;;;;5075019;28;20045;-66
2022/06/10 01:23:58;;;;;;;3.33;1.83;;;11.00;99.90;;;;;;5030371;28;20056;-66
2022/06/10 01:29:51;;;;;;;9.55;2.60;;;10.90;99.90;;;;;;5057971;28;20056;-66
2022/06/10 01:32:45;;;;;;;8.05;1.75;;;10.80;99.90;;;;;;5057467;28;20056;-66
2022/06/10 01:35:35;;;;;;;3.85;2.00;;;10.80;99.90;;;;;;5079892;28;20043;-66
2022/06/10 01:38:18;;;;;;;7.32;1.90;;;10.80;99.90;;;;;;5077125;28;20062;-66
2022/06/10 01:41:04;;;;;;;3.67;1.98;;;10.80;99.90;;;;;;5077300;28;20062;-66
2022/06/10 01:43:52;;;;;;;9.80;3.10;;;10.80;99.90;;;;;;5076972;28;20051;-66
2022/06/10 01:46:30;;;;;;;6.50;3.13;;;10.70;99.90;;;;;;5077556;28;20055;-67
2022/06/10 01:49:09;;;;;;;8.23;2.22;;;10.70;99.90;;;;;;5095355;28;20521;-66
2022/06/10 01:52:10;;;;;;;7.50;2.42;;;10.70;99.90;;;;;;5080988;28;20087;-66
2022/06/10 01:54:46;;;;;;;12.63;2.30;;;10.70;99.90;;;;;;5075090;28;20075;-67
2022/06/10 01:57:25;;;;;;;6.45;2.40;;;10.70;99.90;;;;;;5057115;28;20054;-66
2022/06/10 02:00:23;;;;;;;7.95;1.85;;;10.70;99.90;;;;;;5057918;28;20041;-66
2022/06/10 02:03:11;;;;;;;4.82;2.13;;;10.70;99.90;;;;;;5039369;28;20134;-66
2022/06/10 02:05:43;;;;;;;9.40;3.03;;;10.60;99.90;;;;;;5089931;28;20051;-66
2022/06/10 02:08:14;;;;;;;19.65;3.60;;;10.60;99.90;;;;;;5076699;28;20040;-66
2022/06/10 02:11:10;;;;;;;4.57;2.40;;;10.60;99.90;;;;;;5094819;28;20375;-66
2022/06/10 02:13:46;;;;;;;5.03;1.92;;;10.60;99.90;;;;;;5074525;28;20125;-66
2022/06/10 02:16:15;;;;;;;5.28;2.50;;;10.60;99.90;;;;;;5076733;28;20039;-66
2022/06/10 02:19:09;;;;;;;8.73;2.67;;;10.50;99.90;;;;;;5076935;28;20126;-66
2022/06/10 02:21:47;;;;;;;6.15;2.28;;;10.50;99.90;;;;;;5067582;28;20044;-66
2022/06/10 02:24:26;;;;;;;6.25;3.10;;;10.50;99.90;;;;;;5075595;28;20098;-66
2022/06/10 02:27:00;;;;;;;4.63;2.33;;;10.50;99.90;;;;;;5074315;28;20051;-66
2022/06/10 02:29:32;;;;;;;6.20;2.17;;;10.40;99.90;;;;;;5074363;28;20528;-66
2022/06/10 02:32:00;;;;;;;7.15;2.25;;;10.40;99.90;;;;;;5074588;28;20036;-66
2022/06/10 02:34:28;;;;;;;9.38;2.80;;;10.30;99.90;;;;;;5057000;28;20059;-66
2022/06/10 02:37:22;;;;;;;5.70;2.33;;;10.50;99.90;;;;;;5056658;28;20123;-67
2022/06/10 02:39:53;;;;;;;6.65;1.88;;;10.40;99.90;;;;;;5029775;28;20071;-66
2022/06/10 02:42:45;;;;;;;5.20;2.28;;;10.30;99.90;;;;;;5074351;28;20048;-67
2022/06/10 02:45:29;;;;;;;12.05;3.83;;;10.30;99.90;;;;;;5057029;28;20088;-66
2022/06/10 02:48:10;;;;;;;9.70;2.15;;;10.30;99.90;;;;;;5074602;28;20045;-66
2022/06/10 02:50:37;;;;;;;8.68;2.60;;;10.30;99.90;;;;;;5059050;28;20367;-66
2022/06/10 02:53:04;;;;;;;5.25;2.20;;;10.30;99.90;;;;;;5068525;28;20388;-66
2022/06/10 02:55:31;;;;;;;6.82;2.40;;;10.30;99.90;;;;;;5098388;28;20113;-66
2022/06/10 03:01:20;;;;;;;4.15;2.05;;;10.20;99.90;;;;;;5080183;28;20048;-66
2022/06/10 03:04:06;;;;;;;12.43;2.60;;;10.20;99.90;;;;;;5080070;28;20476;-66
2022/06/10 03:06:45;;;;;;;5.32;2.25;;;10.10;99.90;;;;;;5079711;28;20043;-66
2022/06/10 03:09:36;;;;;;;6.13;1.80;;;10.10;99.90;;;;;;5062831;28;20072;-66
2022/06/10 03:12:23;;;;;;;3.25;1.75;;;10.10;99.90;;;;;;5060194;28;20049;-66
2022/06/10 03:15:15;;;;;;;6.00;2.22;;;10.10;99.90;;;;;;5060176;28;20080;-67
2022/06/10 03:17:43;;;;;;;6.93;2.50;;;10.10;99.90;;;;;;5059681;28;20453;-66
2022/06/10 03:20:38;;;;;;;3.72;1.92;;;10.10;99.90;;;;;;5060168;28;20415;-66
2022/06/10 03:23:12;;;;;;;4.63;2.45;;;10.10;99.90;;;;;;5050771;28;20136;-67
2022/06/10 03:25:45;;;;;;;9.02;2.22;;;10.00;99.90;;;;;;5060405;28;20071;-66
2022/06/10 03:28:12;;;;;;;8.23;2.45;;;10.00;99.90;;;;;;5059867;28;20091;-67
2022/06/10 03:31:08;;;;;;;7.80;2.58;;;10.10;99.90;;;;;;5060119;28;20060;-67
2022/06/10 03:33:40;;;;;;;7.25;2.42;;;10.00;99.90;;;;;;5031228;28;20443;-66
2022/06/10 03:36:09;;;;;;;4.05;2.28;;;10.00;99.90;;;;;;5060065;28;20113;-66
2022/06/10 03:38:40;;;;;;;5.15;2.13;;;10.10;99.90;;;;;;5074042;28;20151;-66
2022/06/10 03:41:06;;;;;;;12.38;2.17;;;10.10;99.90;;;;;;5079541;28;20050;-66
2022/06/10 03:43:38;;;;;;;8.18;2.40;;;10.10;99.90;;;;;;5097316;28;20456;-66
2022/06/10 03:46:07;;;;;;;7.15;2.30;;;10.10;99.90;;;;;;5097298;28;20120;-66
2022/06/10 03:48:36;;;;;;;6.85;2.47;;;10.20;99.90;;;;;;5079684;28;20052;-67
2022/06/10 03:51:02;;;;;;;6.68;2.58;;;10.30;99.90;;;;;;5079323;28;20047;-67
2022/06/10 03:53:28;;;;;;;11.10;2.60;;;10.20;99.90;;;;;;5082575;28;20052;-66
2022/06/10 03:55:53;;;;;;;8.88;2.53;;;10.30;99.90;;;;;;5058723;28;20056;-67
2022/06/10 03:58:20;;;;;;;5.88;2.60;;;10.30;99.90;;;;;;5058416;28;20049;-66
2022/06/10 04:00:46;;;;;;;4.15;2.50;;;10.30;99.90;;;;;;5058843;28;20060;-66
2022/06/10 04:03:12;;;;;;;5.60;2.50;;;10.40;99.90;;;;;;5059693;28;20048;-67
2022/06/10 04:05:38;;;;;;;4.63;1.90;;;10.40;99.90;;;;;;5059201;28;20052;-66
2022/06/10 04:08:04;;;;;;;3.70;2.25;;;10.50;99.90;;;;;;5058966;28;20049;-66
2022/06/10 04:10:31;;;;;;;11.82;2.83;;;10.50;99.90;;;;;;5058789;28;20040;-66
2022/06/10 04:12:57;;;;;;;5.85;2.67;;;10.50;99.90;;;;;;5058360;28;20055;-66
2022/06/10 04:15:25;;;;;;;7.68;2.10;;;10.60;99.90;;;;;;5058624;28;20048;-66
2022/06/10 04:17:52;;;;;;;5.63;2.17;;;10.60;99.90;;;;;;5058882;28;20048;-66
2022/06/10 04:20:24;;;;;;;4.13;2.20;;;10.70;99.90;;;;;;5076457;28;20055;-66
2022/06/10 04:22:50;;;;;;;8.15;3.45;;;10.70;99.90;;;;;;5059010;28;20459;-68
2022/06/10 04:25:16;;;;;;;5.65;2.38;;;10.80;99.90;;;;;;5087604;28;20032;-66
2022/06/10 04:27:42;;;;;;;7.15;2.40;;;10.90;99.90;;;;;;5096390;28;20435;-67
2022/06/10 04:30:17;;;;;;;3.75;2.47;;;10.90;99.90;;;;;;5074866;28;20121;-66
2022/06/10 04:32:43;;;;;;;6.25;2.63;;;11.00;99.90;;;;;;5058488;28;20044;-66
2022/06/10 04:35:08;;;;;;;5.38;2.25;;;11.10;99.90;;;;;;5075743;28;20044;-66
2022/06/10 04:37:34;;;;;;;9.60;3.50;;;11.40;99.90;;;;;;5058292;28;20177;-66
2022/06/10 04:39:59;;;;;;;5.63;2.55;;;11.20;99.90;;;;;;5041722;28;20345;-66
2022/06/10 04:42:25;;;;;;;9.20;2.42;;;11.30;99.90;;;;;;5075698;28;20422;-66
2022/06/10 04:44:50;;;;;;;7.20;2.58;;;11.40;99.90;;;;;;5048760;28;20048;-67
2022/06/10 04:47:16;;;;;;;13.20;2.90;;;11.50;99.90;;;;;;5082238;28;20358;-66
2022/06/10 04:49:42;;;;;;;11.18;2.75;;;11.60;99.90;;;;;;5058267;28;20086;-66
2022/06/10 04:52:07;;;;;;;6.03;2.40;;;11.80;99.90;;;;;;5075302;28;20040;-67
2022/06/10 04:54:33;;;;;;;9.35;3.13;;;11.90;99.90;;;;;;5074464;28;20047;-69
2022/06/10 04:56:58;;;;;;;9.35;2.90;;;12.00;99.90;;;;;;5077068;28;20506;-68
2022/06/10 04:59:25;;;;;;;3.20;1.90;;;12.10;99.90;;;;;;5095814;28;20138;-68
2022/06/10 05:01:51;;;;;;;7.35;2.13;;;12.30;99.90;;;;;;5072538;28;20417;-68
2022/06/10 05:04:16;;;;;;;7.22;2.80;;;12.40;99.90;;;;;;5071510;28;20131;-68
2022/06/10 05:06:42;;;;;;;10.27;2.67;;;12.60;99.90;;;;;;5057848;28;20083;-67
2022/06/10 05:09:07;;;;;;;5.53;1.88;;;12.80;99.90;;;;;;5074863;28;20087;-67
2022/06/10 05:11:33;;;;;;;5.50;2.72;;;13.10;99.90;;;;;;5074277;28;20059;-67
2022/06/10 05:13:59;;;;;;;7.63;2.38;;;14.30;99.90;;;;;;5069707;28;20365;-68
2022/06/10 05:16:25;;;;;;;5.00;2.58;;;16.20;99.90;;;;;;5077108;28;20075;-68
2022/06/10 05:18:51;;;;;;;9.57;2.75;;;18.00;99.90;;;;;;5094918;28;20079;-69
2022/06/10 05:21:17;;;;;;;4.10;1.80;;;19.20;99.90;;;;;;5095207;28;20106;-68
2022/06/10 05:23:45;;;;;;;5.07;2.05;;;19.70;99.90;;;;;;5077633;28;20077;-68
2022/06/10 05:26:11;;;;;;;7.15;2.03;;;19.50;99.90;;;;;;5094378;28;20076;-69
2022/06/10 05:28:37;;;;;;;10.55;2.80;;;19.30;99.90;;;;;;5065449;28;20059;-68
2022/06/10 05:31:03;;;;;;;12.15;2.53;;;19.00;99.90;;;;;;5095072;28;20036;-69
2022/06/10 05:34:44;;;;;;;9.80;2.65;;;19.30;99.90;;;;;;5094937;28;20120;-68
2022/06/10 05:36:14;;;;;;;6.38;2.60;;;19.80;99.90;;;;;;5094534;28;20055;-68
2022/06/10 05:38:40;;;;;;;9.45;2.40;;;20.00;99.90;;;;;;5076947;28;20036;-68
2022/06/10 05:43:49;;;;;;;6.40;1.80;;;19.10;99.90;;;;;;5075988;28;20055;-67
2022/06/10 05:46:15;;;;;;;3.30;1.75;;;18.70;99.90;;;;;;5076907;28;20044;-66
2022/06/10 05:48:42;;;;;;;11.00;2.53;;;18.30;99.90;;;;;;5077144;28;20135;-66
2022/06/10 05:51:08;;;;;;;8.20;1.95;;;18.00;99.90;;;;;;5094479;28;20070;-66
2022/06/10 05:53:33;;;;;;;6.78;1.83;;;17.70;99.90;;;;;;5075980;28;20492;-66
2022/06/10 05:55:59;;;;;;;7.85;2.15;;;17.40;99.90;;;;;;5094410;28;20044;-67
2022/06/10 05:58:25;;;;;;;5.65;2.25;;;17.20;99.90;;;;;;5071827;28;20044;-66
2022/06/10 06:00:50;;;;;;;13.30;3.10;;;17.00;99.90;;;;;;5074107;28;20048;-67
2022/06/10 06:03:16;;;;;;;9.10;2.63;;;17.00;99.90;;;;;;5056904;28;20127;-67
2022/06/10 06:05:42;;;;;;;8.02;2.35;;;17.00;99.90;;;;;;5056250;28;20114;-68
2022/06/10 06:08:08;;;;;;;15.95;3.47;;;17.00;99.90;;;;;;5074256;28;20110;-68
2022/06/10 06:10:34;;;;;;;13.77;3.25;;;16.90;99.90;;;;;;5056821;28;20048;-67
2022/06/10 06:13:00;;;;;;;13.32;3.35;;;16.80;99.90;;;;;;5074117;28;20093;-67
2022/06/10 06:15:26;;;;;;;5.75;1.90;;;16.90;99.90;;;;;;5077607;28;20105;-68
2022/06/10 06:17:52;;;;;;;12.75;4.10;;;16.90;99.90;;;;;;5076247;28;20481;-68
2022/06/10 06:20:21;;;;;;;8.23;2.17;;;17.00;99.90;;;;;;5074953;28;20464;-68
2022/06/10 06:22:47;;;;;;;13.98;4.18;;;17.20;99.90;;;;;;5086855;28;20040;-69
2022/06/10 06:25:15;;;;;;;8.82;2.15;;;17.20;99.90;;;;;;5089505;28;20063;-69
2022/06/10 06:27:45;;;;;;;15.20;2.90;;;17.40;99.90;;;;;;5077596;28;20052;-69
2022/06/10 06:30:15;;;;;;;4.82;1.92;;;17.50;99.90;;;;;;5069723;28;20064;-68
2022/06/10 06:32:41;;;;;;;5.35;1.75;;;17.60;99.90;;;;;;5077316;28;20036;-70
2022/06/10 06:35:08;;;;;;;5.25;2.20;;;17.70;99.90;;;;;;5086310;28;20051;-69
2022/06/10 06:37:33;;;;;;;7.15;1.83;;;17.50;99.90;;;;;;5069342;28;20052;-69
2022/06/10 06:39:59;;;;;;;6.50;1.38;;;17.50;99.90;;;;;;5077464;28;20381;-68
2022/06/10 06:42:25;;;;;;;10.38;1.98;;;17.50;99.90;;;;;;5086721;28;20105;-68
2022/06/10 06:44:50;;;;;;;5.22;1.50;;;17.30;99.90;;;;;;5073563;28;20548;-68
2022/06/10 06:47:16;;;;;;;4.60;2.00;;;17.30;99.90;;;;;;5069641;28;20040;-69
2022/06/10 06:49:42;;;;;;;5.50;1.75;;;17.20;99.90;;;;;;5076833;28;20052;-68
2022/06/10 06:52:08;;;;;;;7.05;2.55;;;17.10;99.90;;;;;;5072546;28;20097;-69
2022/06/10 06:54:38;;;;;;;6.55;2.20;;;17.10;99.90;;;;;;5085054;28;20044;-69
2022/06/10 06:57:04;;;;;;;7.53;1.90;;;17.20;99.90;;;;;;5086204;28;20043;-68
2022/06/10 06:59:31;;;;;;;6.72;1.92;;;17.30;99.90;;;;;;5069597;28;20109;-67
2022/06/10 07:01:57;;;;;;;5.35;1.73;;;17.30;99.90;;;;;;5076589;28;20342;-68
2022/06/10 07:04:23;;;;;;;7.57;2.70;;;17.40;99.90;;;;;;5079608;28;20098;-68
2022/06/10 07:06:48;;;;;;;5.13;2.20;;;17.40;99.90;;;;;;5068115;28;20044;-68
2022/06/10 07:09:14;;;;;;;6.15;1.85;;;17.40;99.90;;;;;;5069486;28;20048;-67
2022/06/10 07:11:41;;;;;;;5.63;2.05;;;17.50;99.90;;;;;;5067895;28;20128;-67
2022/06/10 07:14:07;;;;;;;5.78;2.30;;;17.40;99.90;;;;;;5069792;28;20518;-67
2022/06/10 07:16:32;;;;;;;8.32;2.92;;;17.60;99.90;;;;;;5066988;28;20051;-68
2022/06/10 07:18:58;;;;;;;8.23;2.25;;;17.70;99.90;;;;;;5086071;28;20036;-67
2022/06/10 07:21:24;;;;;;;7.93;2.53;;;17.90;99.90;;;;;;5068394;28;20353;-68
2022/06/10 07:23:49;;;;;;;8.02;2.03;;;18.10;99.90;;;;;;5076577;28;20174;-69
2022/06/10 07:26:16;;;;;;;15.48;3.50;;;18.10;99.90;;;;;;5076621;28;20041;-69
2022/06/10 07:28:42;;;;;;;9.05;2.05;;;18.00;99.90;;;;;;5067435;28;20444;-69
2022/06/10 07:31:07;;;;;;;7.20;2.80;;;18.00;99.90;;;;;;5071478;28;20050;-71
2022/06/10 07:33:35;;;;;;;10.32;2.55;;;18.00;99.90;;;;;;5090797;28;20429;-69
2022/06/10 07:36:02;;;;;;;7.85;2.90;;;18.00;99.90;;;;;;5089929;28;20052;-69
2022/06/10 07:38:27;;;;;;;4.78;2.47;;;18.00;99.90;;;;;;5069565;28;20045;-68
2022/06/10 07:43:39;;;;;;;9.32;3.03;;;18.00;99.90;;;;;;5065998;28;20079;-66
2022/06/10 07:46:06;;;;;;;9.88;2.53;;;17.90;99.90;;;;;;5068304;28;20115;-67
2022/06/10 07:48:32;;;;;;;5.20;2.75;;;17.80;99.90;;;;;;5076197;28;20032;-67
2022/06/10 07:50:58;;;;;;;6.32;2.78;;;17.90;99.90;;;;;;5068584;28;20500;-67
2022/06/10 07:53:23;;;;;;;12.35;2.95;;;17.80;99.90;;;;;;5085266;28;20154;-67
2022/06/10 07:55:49;;;;;;;9.38;3.95;;;17.70;99.90;;;;;;5068622;28;20436;-67
2022/06/10 07:58:19;;;;;;;7.95;3.17;;;17.70;99.90;;;;;;5075419;28;20048;-67
2022/06/10 08:00:45;;;;;;;4.80;2.50;;;17.70;99.90;;;;;;5058197;28;20067;-68
2022/06/10 08:03:12;;;;;;;7.68;2.80;;;17.80;99.90;;;;;;5085480;28;20033;-68
2022/06/10 08:05:38;;;;;;;7.00;2.55;;;17.90;99.90;;;;;;5067746;28;20045;-68
2022/06/10 08:08:04;;;;;;;5.30;2.40;;;18.00;99.90;;;;;;5075188;28;20059;-68
2022/06/10 08:10:34;;;;;;;6.10;2.03;;;18.10;99.90;;;;;;5079829;28;20083;-68
2022/06/10 08:13:01;;;;;;;9.65;3.10;;;18.20;99.90;;;;;;5066941;28;20036;-68
2022/06/10 08:15:29;;;;;;;7.20;2.92;;;18.30;99.90;;;;;;5067351;28;20045;-68
2022/06/10 08:17:57;;;;;;;7.82;2.50;;;18.50;99.90;;;;;;5050836;28;20080;-68
2022/06/10 08:22:32;;;;;;;8.15;2.42;;;18.60;99.90;;;;;;5068800;28;20037;-68
2022/06/10 08:23:12;;;;;;;5.57;2.28;;;18.50;99.90;;;;;;5079232;28;20445;-69
2022/06/10 08:25:39;;;;;;;7.15;2.47;;;18.40;99.90;;;;;;5086021;28;20045;-68
2022/06/10 08:28:05;;;;;;;12.13;2.97;;;18.40;99.90;;;;;;5066083;28;20361;-68
2022/06/10 08:30:30;;;;;;;10.02;2.60;;;18.40;99.90;;;;;;5074986;28;20505;-68
2022/06/10 08:32:56;;;;;;;6.97;2.33;;;18.40;99.90;;;;;;5057702;28;20040;-68
2022/06/10 08:35:21;;;;;;;7.03;2.38;;;18.50;99.90;;;;;;5068509;28;20123;-68
2022/06/10 08:37:47;;;;;;;7.50;2.88;;;18.50;99.90;;;;;;5065464;28;20372;-70
2022/06/10 08:40:40;;;;;;;7.90;2.78;;;18.60;99.90;;;;;;5075050;28;20421;-68
2022/06/10 08:43:28;;;;;;;17.23;3.38;;;18.70;99.90;;;;;;5085893;28;20497;-68
2022/06/10 08:46:25;;;;;;;8.15;2.60;;;18.70;99.90;;;;;;5061646;28;20107;-68
2022/06/10 08:49:10;;;;;;;7.28;2.97;;;18.70;99.90;;;;;;5083924;28;20105;-69
2022/06/10 08:52:19;;;;;;;9.70;2.70;;;18.50;99.90;;;;;;5063063;28;20410;-68
2022/06/10 08:55:10;;;;;;;15.32;3.40;;;18.50;99.90;;;;;;5065081;28;20044;-69
2022/06/10 08:57:43;;;;;;;10.40;2.97;;;18.40;99.90;;;;;;5061425;28;20473;-69
2022/06/10 09:00:17;;;;;;;12.10;3.28;;;18.20;99.90;;;;;;5064086;28;20091;-69
2022/06/10 09:03:04;;;;;;;9.75;2.95;;;18.10;99.90;;;;;;5065911;28;20052;-68
2022/06/10 09:05:53;;;;;;;10.52;2.78;;;18.10;99.90;;;;;;5048133;28;20041;-69
2022/06/10 09:08:26;;;;;;;5.93;3.00;;;18.20;99.90;;;;;;5047786;28;20049;-67
2022/06/10 09:11:05;;;;;;;6.27;3.17;;;18.40;99.90;;;;;;5042493;28;20053;-67
2022/06/10 09:13:34;;;;;;;6.32;2.78;;;18.70;99.90;;;;;;5042140;28;20058;-68
2022/06/10 09:16:19;;;;;;;7.60;2.85;;;19.10;99.90;;;;;;5064653;28;20048;-69
2022/06/10 09:19:04;;;;;;;4.20;2.50;;;19.60;99.90;;;;;;5065356;28;20116;-67
2022/06/10 09:21:46;;;;;;;9.32;2.35;;;19.70;99.90;;;;;;5073682;28;20044;-66
2022/06/10 09:24:38;;;;;;;8.73;3.47;;;19.80;99.90;;;;;;5068064;28;20044;-67
2022/06/10 09:27:06;;;;;;;8.55;3.53;;;19.70;99.90;;;;;;5046408;28;20044;-66
2022/06/10 09:29:32;;;;;;;6.80;2.78;;;19.80;99.90;;;;;;5055686;28;20139;-67
2022/06/10 09:32:13;;;;;;;9.02;2.70;;;19.90;99.90;;;;;;5063831;28;20036;-67
2022/06/10 09:34:57;;;;;;;10.18;2.45;;;19.90;99.90;;;;;;5064287;28;20499;-67
2022/06/10 09:37:44;;;;;;;7.43;3.13;;;19.80;99.90;;;;;;5047476;28;20060;-67
2022/06/10 09:40:37;;;;;;;9.68;2.50;;;19.60;99.90;;;;;;5063246;28;20072;-67
2022/06/10 09:43:11;;;;;;;10.60;3.30;;;19.50;99.90;;;;;;5039507;28;20044;-67
2022/06/10 09:46:10;;;;;;;6.43;2.55;;;19.20;99.90;;;;;;5052468;28;20068;-67
2022/06/10 09:48:54;;;;;;;8.30;2.58;;;19.10;99.90;;;;;;5044267;28;20055;-68
2022/06/10 09:51:42;;;;;;;8.73;2.97;;;18.90;99.90;;;;;;5052337;28;20048;-67
2022/06/10 09:54:26;;;;;;;6.70;3.00;;;18.90;99.90;;;;;;5085327;28;20051;-67
2022/06/10 09:57:29;;;;;;;7.57;2.78;;;18.70;99.90;;;;;;5114639;28;20083;-67
2022/06/10 10:00:18;;;;;;;7.50;2.93;;;18.70;99.90;;;;;;5079123;28;20041;-67
2022/06/10 10:03:13;;;;;;;5.93;2.90;;;18.90;99.90;;;;;;5081163;28;20275;-67
2022/06/10 10:06:09;;;;;;;6.10;2.70;;;19.20;99.90;;;;;;5081076;28;20123;-67
2022/06/10 10:08:50;;;;;;;7.78;2.85;;;19.50;99.90;;;;;;5080676;28;20530;-67
2022/06/10 10:11:28;;;;;;;8.85;2.75;;;19.80;99.90;;;;;;5080817;28;20044;-67
2022/06/10 10:14:09;;;;;;;7.35;2.90;;;20.40;99.90;;;;;;5079788;28;20063;-67
2022/06/10 10:16:43;;;;;;;5.68;2.88;;;20.70;99.90;;;;;;5065968;28;20117;-67
2022/06/10 10:19:45;;;;;;;6.82;2.75;;;20.90;99.90;;;;;;5083412;28;20098;-67
2022/06/10 10:22:11;;;;;;;9.52;3.03;;;21.20;99.90;;;;;;5092809;28;20112;-67
2022/06/10 10:24:43;;;;;;;4.97;2.22;;;21.20;99.90;;;;;;5121392;28;20055;-67
2022/06/10 10:27:31;;;;;;;6.05;2.47;;;21.10;99.90;;;;;;5094996;28;20040;-67
2022/06/10 10:30:21;;;;;;;7.85;2.78;;;21.10;99.90;;;;;;5080187;28;20426;-67
2022/06/10 10:32:55;;;;;;;8.00;3.17;;;21.10;99.90;;;;;;5082115;28;20048;-68
2022/06/10 10:35:25;;;;;;;9.07;2.90;;;21.30;99.90;;;;;;5073492;28;20048;-67
2022/06/10 10:37:56;;;;;;;11.45;2.85;;;21.50;99.90;;;;;;5076339;28;20063;-67
2022/06/10 10:40:39;;;;;;;7.95;2.78;;;21.80;99.90;;;;;;5062989;28;20123;-67
2022/06/10 10:43:17;;;;;;;6.97;2.70;;;22.10;99.90;;;;;;5080070;28;20135;-67
2022/06/10 10:46:02;;;;;;;10.30;2.67;;;22.20;99.90;;;;;;5080236;28;20086;-67
2022/06/10 10:48:34;;;;;;;6.28;2.75;;;22.20;99.90;;;;;;5063622;28;20048;-67
2022/06/10 10:51:14;;;;;;;5.60;2.40;;;21.80;99.90;;;;;;5080601;28;20356;-68
2022/06/10 10:53:45;;;;;;;7.45;3.22;;;21.80;99.90;;;;;;5079980;28;20053;-67
2022/06/10 10:56:13;;;;;;;7.85;2.55;;;21.90;99.90;;;;;;5080497;28;20110;-68
2022/06/10 10:58:46;;;;;;;6.15;2.63;;;21.90;99.90;;;;;;5073520;28;20110;-67
2022/06/10 11:01:43;;;;;;;8.15;2.38;;;21.90;99.90;;;;;;5063134;28;20109;-67
2022/06/10 11:04:01;;;;;;;5.47;2.15;;;21.80;99.90;;;;;;5062509;28;20060;-68
2022/06/10 11:06:30;;;;;;;5.93;2.38;;;21.80;99.90;;;;;;5062282;28;20059;-67
2022/06/10 11:08:59;;;;;;;4.13;1.92;;;22.00;99.90;;;;;;5080430;28;20040;-67
2022/06/10 11:11:30;;;;;;;9.85;2.58;;;22.10;99.90;;;;;;5077594;28;20412;-67
2022/06/10 11:13:59;;;;;;;6.43;2.38;;;22.20;99.90;;;;;;5071595;28;20037;-67
2022/06/10 11:16:27;;;;;;;6.60;2.17;;;22.30;99.90;;;;;;5059177;28;20048;-68
2022/06/10 11:19:01;;;;;;;8.32;2.60;;;22.30;99.90;;;;;;5076962;28;20040;-66
2022/06/10 11:21:27;;;;;;;7.57;2.35;;;22.10;99.90;;;;;;5076889;28;20049;-67
2022/06/10 11:23:58;;;;;;;7.40;2.00;;;21.80;99.90;;;;;;5059603;28;20057;-67
2022/06/10 11:26:26;;;;;;;6.07;1.83;;;21.60;99.90;;;;;;5059628;28;20056;-67
2022/06/10 11:29:01;;;;;;;11.52;2.97;;;21.30;99.90;;;;;;5059611;28;20051;-68
2022/06/10 11:31:40;;;;;;;9.70;2.80;;;21.20;99.90;;;;;;5059450;28;20065;-67
2022/06/10 11:34:17;;;;;;;8.55;2.45;;;21.20;99.90;;;;;;5059427;28;20059;-68
2022/06/10 11:36:46;;;;;;;18.92;2.70;;;21.30;99.90;;;;;;5059531;28;20468;-67
2022/06/10 11:39:19;;;;;;;11.65;2.55;;;21.50;99.90;;;;;;5076759;28;20040;-67
2022/06/10 11:42:07;;;;;;;4.40;2.13;;;21.90;99.90;;;;;;5058967;28;20060;-67
2022/06/10 11:44:42;;;;;;;21.08;3.55;;;21.90;99.90;;;;;;5059280;28;20063;-67
2022/06/10 11:47:18;;;;;;;5.47;2.17;;;21.90;99.90;;;;;;5076834;28;20048;-68
2022/06/10 11:49:50;;;;;;;11.10;3.10;;;22.00;99.90;;;;;;5058825;28;20091;-69
2022/06/10 11:52:19;;;;;;;7.72;2.30;;;22.20;99.90;;;;;;5058805;28;20141;-68
2022/06/10 11:55:05;;;;;;;7.15;2.17;;;22.30;99.90;;;;;;5076301;28;20057;-68
2022/06/10 12:00:49;;;;;;;5.78;1.90;;;22.40;99.90;;;;;;5058622;28;20052;-69
2022/06/10 12:03:17;;;;;;;8.73;2.60;;;22.50;99.90;;;;;;5058718;28;20053;-68
2022/06/10 12:06:01;;;;;;;8.90;2.00;;;22.60;99.90;;;;;;5076511;28;20041;-69
2022/06/10 12:08:34;;;;;;;4.57;2.20;;;22.70;99.90;;;;;;5058691;28;20048;-69
2022/06/10 12:11:24;;;;;;;9.88;2.65;;;22.90;99.90;;;;;;5041667;28;20128;-68
2022/06/10 12:14:14;;;;;;;8.18;2.20;;;23.00;99.90;;;;;;5058366;28;20050;-69
2022/06/10 12:16:41;;;;;;;8.02;2.38;;;23.00;99.90;;;;;;5076037;28;20049;-68
2022/06/10 12:19:16;;;;;;;5.20;1.90;;;23.10;99.90;;;;;;5058267;28;20048;-69
2022/06/10 12:21:42;;;;;;;7.35;2.38;;;22.70;99.90;;;;;;5058236;28;20075;-68
2022/06/10 12:24:14;;;;;;;8.25;1.83;;;22.80;99.90;;;;;;5057778;28;20045;-68
2022/06/10 12:27:01;;;;;;;6.23;1.83;;;23.00;99.90;;;;;;5078746;28;20056;-69
2022/06/10 12:29:48;;;;;;;6.13;2.45;;;23.20;99.90;;;;;;5102985;28;20127;-68
2022/06/10 12:32:40;;;;;;;20.65;2.88;;;23.30;99.90;;;;;;5058340;28;20411;-68
2022/06/10 12:35:19;;;;;;;4.45;1.92;;;23.30;99.90;;;;;;5058295;28;20067;-69
2022/06/10 12:38:00;;;;;;;7.32;1.70;;;23.30;99.90;;;;;;5057882;28;20079;-69
2022/06/10 12:40:46;;;;;;;6.20;2.00;;;23.40;99.90;;;;;;5075407;28;20182;-69
2022/06/10 12:43:27;;;;;;;11.35;1.95;;;23.40;99.90;;;;;;5086639;28;20044;-69
2022/06/10 12:45:54;;;;;;;5.25;1.80;;;23.50;99.90;;;;;;5077854;28;20047;-69
2022/06/10 12:48:26;;;;;;;10.48;2.35;;;23.50;99.90;;;;;;5077528;28;20153;-69
2022/06/10 12:51:01;;;;;;;5.93;2.05;;;23.60;99.90;;;;;;5077891;28;20190;-69
2022/06/10 12:53:48;;;;;;;4.78;1.92;;;23.60;99.90;;;;;;5077186;28;20056;-69
2022/06/10 12:56:21;;;;;;;12.48;2.50;;;23.70;99.90;;;;;;5077282;28;20044;-69
2022/06/10 12:58:53;;;;;;;;;;;23.60;99.90;;;;;;5075542;28;20364;-67
2022/06/10 13:01:27;;;;;;;6.95;1.95;;;23.40;99.90;;;;;;5075141;28;19925;-67
2022/06/10 13:03:56;;;;;;;7.72;1.95;;;23.30;99.90;;;;;;5057976;28;20052;-67
2022/06/10 13:06:28;;;;;;;6.25;1.92;;;23.20;99.90;;;;;;5076622;28;20074;-68
2022/06/10 13:09:06;;;;;;;5.35;2.03;;;23.10;99.90;;;;;;5077855;28;20348;-68
2022/06/10 13:11:41;;;;;;;10.90;2.13;;;23.20;99.90;;;;;;5077169;28;20048;-67
2022/06/10 13:14:30;;;;;;;9.30;2.15;;;23.30;99.90;;;;;;5095047;28;20055;-68
2022/06/10 13:16:58;;;;;;;8.93;2.25;;;23.40;99.90;;;;;;5095038;28;20113;-68
2022/06/10 13:19:55;;;;;;;13.18;2.53;;;23.40;99.90;;;;;;5077538;28;20048;-68
2022/06/10 13:22:20;;;;;;;6.25;1.80;;;23.40;99.90;;;;;;5064001;28;20040;-69
2022/06/10 13:24:52;;;;;;;4.68;1.70;;;23.30;99.90;;;;;;5086336;28;20051;-68
2022/06/10 13:27:51;;;;;;;5.05;1.60;;;23.30;99.90;;;;;;5097546;28;20043;-69
2022/06/10 13:30:31;;;;;;;6.53;1.95;;;23.30;99.90;;;;;;5097411;28;20047;-69
2022/06/10 13:33:07;;;;;;;5.53;2.03;;;23.10;99.90;;;;;;5097934;28;20127;-69